createdAt,value
2022-08-17T08:27:49.752Z,32.18
2022-08-17T08:30:44.959Z,32.57
2022-08-17T08:34:09.234Z,33.47
2022-08-17T08:37:34.755Z,33.75
2022-08-17T08:40:40.734Z,34.29
2022-08-17T08:43:53.421Z,34.74
2022-08-17T08:47:10.023Z,35.16
2022-08-17T08:50:37.506Z,34.20
2022-08-17T08:53:51.908Z,33.33
2022-08-17T08:57:11.614Z,33.28
2022-08-17T08:59:57.966Z,34.62
2022-08-17T09:03:08.737Z,35.43
2022-08-17T09:06:32.283Z,34.20
2022-08-17T09:09:38.974Z,34.06
2022-08-17T09:12:53.097Z,33.91
2022-08-17T09:15:44.956Z,33.72
2022-08-17T09:19:00.582Z,34.23
2022-08-17T09:22:24.090Z,34.86
2022-08-17T09:25:17.303Z,35.14
2022-08-17T09:28:13.657Z,35.27
2022-08-17T09:31:04.161Z,34.93
2022-08-17T09:33:51.265Z,35.30
2022-08-17T09:36:56.295Z,35.30
2022-08-17T09:39:50.504Z,37.21
2022-08-17T09:42:55.969Z,38.34
2022-08-17T09:45:50.706Z,40.41
2022-08-17T09:48:41.644Z,39.89
2022-08-17T09:51:40.009Z,39.50
2022-08-17T09:54:39.822Z,39.31
2022-08-17T09:57:54.290Z,37.73
2022-08-17T10:00:50.661Z,37.98
2022-08-17T10:03:58.154Z,37.62
2022-08-17T10:06:58.602Z,37.69
2022-08-17T10:09:57.650Z,37.58
2022-08-17T10:13:03.982Z,37.29
2022-08-17T10:16:28.491Z,36.18
2022-08-17T10:19:39.080Z,36.94
2022-08-17T10:22:56.448Z,38.78
2022-08-17T10:26:07.223Z,38.68
2022-08-17T10:28:58.661Z,39.45
2022-08-17T10:31:51.467Z,39.09
2022-08-17T10:34:52.423Z,37.99
2022-08-17T10:37:53.257Z,37.75
2022-08-17T10:40:50.567Z,37.03
2022-08-17T10:44:36.679Z,35.57
2022-08-17T10:47:12.662Z,35.91
2022-08-17T10:50:38.425Z,37.24
2022-08-17T10:53:33.006Z,39.74
2022-08-17T10:56:21.697Z,39.41
2022-08-17T10:59:07.565Z,40.04
2022-08-17T11:02:04.029Z,40.80
2022-08-17T11:05:07.367Z,40.16
2022-08-17T11:08:12.851Z,39.84
2022-08-17T11:11:35.862Z,38.53
2022-08-17T11:14:27.198Z,38.66
2022-08-17T11:17:30.173Z,39.12
2022-08-17T11:20:39.316Z,39.48
2022-08-17T11:24:05.040Z,39.38
2022-08-17T11:27:21.870Z,40.19
2022-08-17T11:30:40.842Z,39.81
2022-08-17T11:33:29.293Z,40.97
2022-08-17T11:36:52.381Z,39.68
2022-08-17T11:39:56.663Z,41.03
2022-08-17T11:43:00.168Z,44.47
2022-08-17T11:46:51.822Z,45.06
2022-08-17T11:50:15.301Z,46.14
2022-08-17T11:53:01.128Z,48.42
2022-08-17T11:55:52.495Z,46.89
2022-08-17T11:58:42.987Z,46.59
2022-08-17T12:01:32.244Z,46.57
2022-08-17T12:04:28.391Z,46.10
2022-08-17T12:07:18.949Z,46.38
2022-08-17T12:10:05.838Z,45.91
2022-08-17T12:12:53.978Z,49.93
2022-08-17T12:15:48.569Z,48.41
2022-08-17T12:18:38.724Z,46.64
2022-08-17T12:21:49.669Z,49.08
2022-08-17T12:25:10.860Z,43.63
2022-08-17T12:28:06.003Z,46.32
2022-08-17T12:30:54.107Z,48.34
2022-08-17T12:33:44.472Z,49.42
2022-08-17T12:36:30.641Z,48.32
2022-08-17T12:39:25.074Z,47.63
2022-08-17T12:42:23.440Z,48.84
2022-08-17T12:45:24.782Z,47.23
2022-08-17T12:48:21.898Z,49.47
2022-08-17T12:51:08.836Z,48.80
2022-08-17T12:53:55.436Z,49.40
2022-08-17T12:56:45.872Z,51.53
2022-08-17T12:59:33.313Z,49.03
2022-08-17T13:02:29.888Z,48.67
2022-08-17T13:05:23.972Z,48.21
2022-08-17T13:08:33.484Z,47.51
2022-08-17T13:11:24.008Z,49.62
2022-08-17T13:14:10.545Z,49.31
2022-08-17T13:17:01.722Z,48.51
2022-08-17T13:19:50.576Z,50.09
2022-08-17T13:22:36.309Z,51.83
2022-08-17T13:25:21.795Z,51.47
2022-08-17T13:28:36.180Z,50.12
2022-08-17T13:31:40.244Z,50.08
2022-08-17T13:35:12.537Z,47.93
2022-08-17T13:38:01.499Z,42.82
2022-08-17T13:40:52.885Z,42.96
2022-08-17T13:43:45.808Z,45.71
2022-08-17T13:46:33.001Z,48.51
2022-08-17T13:49:20.897Z,50.42
2022-08-17T13:52:07.867Z,48.90
2022-08-17T13:54:55.689Z,48.54
2022-08-17T13:57:46.419Z,49.95
2022-08-17T14:00:33.660Z,48.62
2022-08-17T14:03:20.323Z,47.99
2022-08-17T14:06:06.045Z,47.98
2022-08-17T14:08:54.616Z,48.37
2022-08-17T14:11:40.589Z,47.21
2022-08-17T14:14:26.753Z,45.06
2022-08-17T14:17:12.672Z,45.30
2022-08-17T14:19:59.405Z,46.80
2022-08-17T14:22:49.409Z,47.65
2022-08-17T14:25:35.219Z,47.78
2022-08-17T14:28:20.681Z,46.19
2022-08-17T14:31:08.334Z,45.76
2022-08-17T14:33:53.837Z,45.23
2022-08-17T14:36:41.743Z,44.24
2022-08-17T14:39:33.848Z,46.87
2022-08-17T14:42:20.411Z,47.10
2022-08-17T14:45:27.402Z,48.29
2022-08-17T14:48:14.187Z,47.02
2022-08-17T14:50:59.689Z,48.49
2022-08-17T14:53:45.775Z,42.85
2022-08-17T14:56:31.769Z,41.43
2022-08-17T14:59:23.841Z,39.20
2022-08-17T15:02:10.681Z,37.17
2022-08-17T15:05:05.165Z,36.22
2022-08-17T15:07:50.594Z,35.93
2022-08-17T15:10:36.991Z,36.19
2022-08-17T15:13:25.315Z,35.81
2022-08-17T15:16:13.651Z,35.41
2022-08-17T15:19:00.219Z,35.94
2022-08-17T15:21:46.813Z,35.89
2022-08-17T15:24:32.312Z,35.93
2022-08-17T15:27:17.778Z,35.32
2022-08-17T15:30:17.329Z,35.77
2022-08-17T15:33:03.523Z,35.82
2022-08-17T15:35:51.684Z,35.17
2022-08-17T15:38:39.255Z,34.97
2022-08-17T15:41:27.967Z,35.45
2022-08-17T15:44:13.500Z,35.05
2022-08-17T15:46:58.976Z,35.52
2022-08-17T15:49:45.817Z,35.11
2022-08-17T15:52:31.123Z,35.17
2022-08-17T15:55:23.430Z,34.92
2022-08-17T15:58:09.784Z,34.99
2022-08-17T16:01:14.780Z,34.79
2022-08-17T16:04:07.319Z,34.68
2022-08-17T16:07:07.194Z,34.70
2022-08-17T16:09:52.576Z,34.36
2022-08-17T16:12:38.326Z,33.61
2022-08-17T16:15:23.968Z,33.43
2022-08-17T16:18:10.123Z,33.51
2022-08-17T16:20:55.468Z,33.03
2022-08-17T16:23:41.298Z,32.78
2022-08-17T16:26:28.387Z,32.52
2022-08-17T16:29:14.066Z,32.50
2022-08-17T16:32:08.587Z,32.62
2022-08-17T16:34:54.247Z,32.27
2022-08-17T16:37:40.351Z,32.27
2022-08-17T16:40:31.340Z,32.16
2022-08-17T16:43:21.618Z,32.35
2022-08-17T16:46:06.923Z,32.24
2022-08-17T16:48:52.653Z,32.28
2022-08-17T16:51:38.125Z,32.13
2022-08-17T16:54:23.427Z,31.89
2022-08-17T16:57:13.151Z,31.88
2022-08-17T16:59:58.729Z,31.64
2022-08-17T17:02:47.581Z,31.13
2022-08-17T17:05:51.436Z,30.81
2022-08-17T17:08:49.218Z,30.80
2022-08-17T17:11:47.005Z,30.75
2022-08-17T17:14:36.761Z,30.68
2022-08-17T17:17:25.243Z,30.43
2022-08-17T17:20:16.337Z,29.92
2022-08-17T17:23:22.011Z,29.55
2022-08-17T17:26:23.654Z,29.38
2022-08-17T17:29:26.649Z,29.24
2022-08-17T17:32:37.944Z,27.10
2022-08-17T17:35:31.854Z,25.16
2022-08-17T17:38:29.229Z,24.26
2022-08-17T17:41:26.496Z,23.63
2022-08-17T17:44:17.976Z,23.48
2022-08-17T17:47:05.988Z,23.09
2022-08-17T17:49:51.365Z,22.94
2022-08-17T17:53:04.225Z,23.06
2022-08-17T17:56:40.522Z,23.24
2022-08-17T17:59:48.495Z,23.32
2022-08-17T18:02:52.763Z,23.53
2022-08-17T18:06:03.024Z,23.18
2022-08-17T18:12:12.160Z,22.92
2022-08-17T18:15:21.599Z,23.07
2022-08-17T18:18:15.940Z,23.05
2022-08-17T18:21:07.184Z,23.12
2022-08-17T18:24:04.043Z,23.04
2022-08-17T18:26:56.773Z,23.03
2022-08-17T18:29:47.858Z,22.99
2022-08-17T18:32:38.198Z,22.90
2022-08-17T18:35:28.421Z,22.76
2022-08-17T18:38:27.273Z,22.63
2022-08-17T18:41:26.065Z,22.61
2022-08-17T18:44:42.390Z,22.51
2022-08-17T18:47:28.915Z,22.41
2022-08-17T18:50:26.262Z,22.50
2022-08-17T18:53:30.190Z,22.63
2022-08-17T18:56:34.035Z,22.76
2022-08-17T18:59:43.327Z,22.67
2022-08-17T19:02:44.170Z,22.67
2022-08-17T19:05:40.504Z,22.53
2022-08-17T19:08:28.525Z,22.52
2022-08-17T19:11:25.886Z,22.33
2022-08-17T19:14:16.555Z,22.32
2022-08-17T19:17:12.407Z,22.26
2022-08-17T19:20:10.257Z,22.17
2022-08-17T19:23:31.004Z,22.15
2022-08-17T19:26:51.396Z,22.14
2022-08-17T19:30:10.151Z,22.11
2022-08-17T19:32:58.221Z,22.11
2022-08-17T19:35:58.886Z,22.15
2022-08-17T19:39:32.057Z,22.06
2022-08-17T19:42:47.638Z,21.95
2022-08-17T19:46:05.904Z,22.00
2022-08-17T19:48:53.867Z,21.96
2022-08-17T19:51:58.023Z,21.90
2022-08-17T19:54:55.211Z,21.83
2022-08-17T19:58:07.597Z,21.85
2022-08-17T20:00:54.698Z,21.72
2022-08-17T20:04:07.382Z,21.69
2022-08-17T20:06:53.260Z,21.74
2022-08-17T20:09:44.224Z,21.75
2022-08-17T20:12:36.011Z,21.64
2022-08-17T20:15:35.445Z,21.65
2022-08-17T20:18:47.672Z,21.59
2022-08-17T20:21:48.447Z,21.36
2022-08-17T20:24:36.845Z,21.21
2022-08-17T20:27:31.589Z,21.18
2022-08-17T20:30:23.306Z,21.26
2022-08-17T20:33:23.810Z,21.18
2022-08-17T20:36:20.425Z,21.09
2022-08-17T20:39:05.821Z,21.04
2022-08-17T20:42:21.885Z,20.92
2022-08-17T20:45:23.330Z,20.86
2022-08-17T20:48:36.374Z,20.84
2022-08-17T20:51:32.384Z,20.83
2022-08-17T20:54:18.083Z,20.82
2022-08-17T20:57:09.185Z,20.79
2022-08-17T21:00:27.850Z,20.71
2022-08-17T21:03:26.858Z,20.76
2022-08-17T21:06:17.579Z,20.75
2022-08-17T21:09:12.518Z,20.74
2022-08-17T21:12:04.619Z,20.78
2022-08-17T21:15:03.412Z,20.67
2022-08-17T21:17:56.695Z,20.70
2022-08-17T21:21:05.915Z,20.62
2022-08-17T21:24:21.649Z,20.68
2022-08-17T21:27:20.033Z,20.59
2022-08-17T21:30:06.477Z,20.57
2022-08-17T21:33:25.048Z,20.62
2022-08-17T21:36:11.355Z,20.62
2022-08-17T21:39:04.881Z,20.51
2022-08-17T21:41:55.687Z,20.44
2022-08-17T21:44:52.184Z,20.35
2022-08-17T21:47:43.343Z,20.28
2022-08-17T21:50:30.047Z,20.30
2022-08-17T21:53:30.678Z,20.17
2022-08-17T21:56:34.279Z,20.17
2022-08-17T21:59:27.116Z,20.24
2022-08-17T22:02:21.130Z,20.24
2022-08-17T22:05:12.791Z,20.24
2022-08-17T22:08:06.402Z,20.24
2022-08-17T22:11:01.932Z,20.10
2022-08-17T22:13:47.397Z,19.97
2022-08-17T22:16:34.771Z,19.99
2022-08-17T22:19:28.875Z,19.97
2022-08-17T22:22:29.180Z,19.98
2022-08-17T22:25:21.474Z,19.98
2022-08-17T22:28:10.377Z,19.90
2022-08-17T22:31:02.295Z,19.73
2022-08-17T22:34:10.834Z,19.72
2022-08-17T22:37:27.615Z,19.61
2022-08-17T22:40:26.329Z,19.61
2022-08-17T22:43:12.900Z,19.65
2022-08-17T22:45:59.703Z,19.57
2022-08-17T22:48:52.218Z,19.49
2022-08-17T22:51:37.869Z,19.50
2022-08-17T22:54:41.504Z,19.51
2022-08-17T22:57:47.061Z,19.57
2022-08-17T23:00:38.059Z,19.61
2022-08-17T23:03:26.021Z,19.65
2022-08-17T23:06:11.525Z,19.51
2022-08-17T23:08:57.641Z,19.39
2022-08-17T23:11:49.937Z,19.38
2022-08-17T23:14:41.832Z,19.33
2022-08-17T23:17:33.899Z,19.40
2022-08-17T23:20:22.248Z,19.34
2022-08-17T23:23:08.960Z,19.39
2022-08-17T23:25:54.661Z,19.56
2022-08-17T23:28:41.010Z,19.66
2022-08-17T23:31:26.488Z,19.66
2022-08-17T23:34:15.383Z,19.51
2022-08-17T23:37:02.273Z,19.48
2022-08-17T23:39:47.767Z,19.40
2022-08-17T23:42:34.732Z,19.44
2022-08-17T23:45:20.318Z,19.58
2022-08-17T23:48:07.833Z,19.41
2022-08-17T23:50:55.345Z,19.49
2022-08-17T23:53:48.035Z,19.47
2022-08-17T23:56:37.088Z,19.39
2022-08-17T23:59:23.483Z,19.48
